sensor_id;sensor_type;location;lat;lon;timestamp;pressure;altitude;pressure_sealevel;temperature;humidity
36502;BME280;25393;46.108;3.390;2023-04-25T00:00:38;97664.50;;;10.66;89.62
36502;BME280;25393;46.108;3.390;2023-04-25T00:03:05;97654.00;;;10.49;88.75
36502;BME280;25393;46.108;3.390;2023-04-25T00:05:32;97655.44;;;10.37;87.90
36502;BME280;25393;46.108;3.390;2023-04-25T00:07:58;97655.72;;;10.42;87.60
36502;BME280;25393;46.108;3.390;2023-04-25T00:10:25;97661.69;;;10.44;86.77
36502;BME280;25393;46.108;3.390;2023-04-25T00:12:51;97647.19;;;10.32;88.49
36502;BME280;25393;46.108;3.390;2023-04-25T00:15:18;97641.16;;;10.38;87.25
36502;BME280;25393;46.108;3.390;2023-04-25T00:17:44;97647.38;;;10.31;87.87
36502;BME280;25393;46.108;3.390;2023-04-25T00:20:15;97636.13;;;10.29;86.38
36502;BME280;25393;46.108;3.390;2023-04-25T00:22:44;97633.06;;;10.40;84.58
36502;BME280;25393;46.108;3.390;2023-04-25T00:25:13;97635.59;;;10.33;85.60
36502;BME280;25393;46.108;3.390;2023-04-25T00:27:40;97635.72;;;10.09;85.79
36502;BME280;25393;46.108;3.390;2023-04-25T00:30:08;97627.13;;;10.07;86.29
36502;BME280;25393;46.108;3.390;2023-04-25T00:32:35;97641.34;;;10.14;86.86
36502;BME280;25393;46.108;3.390;2023-04-25T00:35:01;97634.94;;;10.00;86.45
36502;BME280;25393;46.108;3.390;2023-04-25T00:37:28;97625.56;;;10.21;85.77
36502;BME280;25393;46.108;3.390;2023-04-25T00:39:54;97628.94;;;10.07;86.02
36502;BME280;25393;46.108;3.390;2023-04-25T00:42:22;97628.34;;;9.96;86.08
36502;BME280;25393;46.108;3.390;2023-04-25T00:44:49;97636.41;;;10.03;86.04
36502;BME280;25393;46.108;3.390;2023-04-25T00:47:16;97626.09;;;9.85;86.51
36502;BME280;25393;46.108;3.390;2023-04-25T00:49:46;97628.72;;;9.85;85.38
36502;BME280;25393;46.108;3.390;2023-04-25T00:52:12;97645.78;;;9.83;86.07
36502;BME280;25393;46.108;3.390;2023-04-25T00:54:39;97621.53;;;9.71;86.26
36502;BME280;25393;46.108;3.390;2023-04-25T00:57:06;97632.00;;;9.65;85.91
36502;BME280;25393;46.108;3.390;2023-04-25T00:59:33;97627.25;;;9.52;86.07
36502;BME280;25393;46.108;3.390;2023-04-25T01:02:00;97628.84;;;9.61;85.23
36502;BME280;25393;46.108;3.390;2023-04-25T01:04:27;97631.22;;;9.56;85.42
36502;BME280;25393;46.108;3.390;2023-04-25T01:06:54;97630.72;;;9.52;85.36
36502;BME280;25393;46.108;3.390;2023-04-25T01:09:20;97644.25;;;9.58;85.53
36502;BME280;25393;46.108;3.390;2023-04-25T01:11:51;97632.91;;;9.49;85.98
36502;BME280;25393;46.108;3.390;2023-04-25T01:14:18;97640.50;;;9.52;86.56
36502;BME280;25393;46.108;3.390;2023-04-25T01:16:46;97634.34;;;9.60;85.50
36502;BME280;25393;46.108;3.390;2023-04-25T01:19:16;97642.75;;;9.63;86.19
36502;BME280;25393;46.108;3.390;2023-04-25T01:21:43;97653.28;;;9.71;86.18
36502;BME280;25393;46.108;3.390;2023-04-25T01:24:09;97639.25;;;9.71;86.08
36502;BME280;25393;46.108;3.390;2023-04-25T01:26:37;97642.38;;;9.74;86.75
36502;BME280;25393;46.108;3.390;2023-04-25T01:29:04;97638.72;;;9.75;86.67
36502;BME280;25393;46.108;3.390;2023-04-25T01:31:32;97635.25;;;9.75;86.21
36502;BME280;25393;46.108;3.390;2023-04-25T01:33:58;97623.03;;;9.74;85.93
36502;BME280;25393;46.108;3.390;2023-04-25T01:36:25;97628.97;;;9.76;86.34
36502;BME280;25393;46.108;3.390;2023-04-25T01:38:54;97643.47;;;9.88;86.48
36502;BME280;25393;46.108;3.390;2023-04-25T01:41:24;97634.03;;;9.85;87.10
36502;BME280;25393;46.108;3.390;2023-04-25T01:43:54;97643.97;;;9.83;86.95
36502;BME280;25393;46.108;3.390;2023-04-25T01:46:24;97640.34;;;9.84;86.15
36502;BME280;25393;46.108;3.390;2023-04-25T01:48:53;97649.25;;;9.91;86.63
36502;BME280;25393;46.108;3.390;2023-04-25T01:51:20;97648.75;;;9.88;86.59
36502;BME280;25393;46.108;3.390;2023-04-25T01:53:55;97649.75;;;9.87;87.18
36502;BME280;25393;46.108;3.390;2023-04-25T01:56:24;97639.91;;;9.73;87.32
36502;BME280;25393;46.108;3.390;2023-04-25T01:58:51;97651.56;;;9.86;87.24
36502;BME280;25393;46.108;3.390;2023-04-25T02:01:20;97654.09;;;9.80;86.88
36502;BME280;25393;46.108;3.390;2023-04-25T02:03:49;97634.97;;;9.62;88.77
36502;BME280;25393;46.108;3.390;2023-04-25T02:06:16;97632.69;;;9.59;88.47
36502;BME280;25393;46.108;3.390;2023-04-25T02:08:42;97637.38;;;9.48;88.82
36502;BME280;25393;46.108;3.390;2023-04-25T02:11:08;97644.31;;;9.49;88.76
36502;BME280;25393;46.108;3.390;2023-04-25T02:13:35;97640.16;;;9.47;87.84
36502;BME280;25393;46.108;3.390;2023-04-25T02:16:02;97634.72;;;9.48;87.99
36502;BME280;25393;46.108;3.390;2023-04-25T02:18:28;97638.69;;;9.44;89.96
36502;BME280;25393;46.108;3.390;2023-04-25T02:20:55;97650.94;;;9.37;90.86
36502;BME280;25393;46.108;3.390;2023-04-25T02:23:21;97644.81;;;9.45;89.17
36502;BME280;25393;46.108;3.390;2023-04-25T02:25:57;97641.56;;;9.27;89.84
36502;BME280;25393;46.108;3.390;2023-04-25T02:28:26;97643.38;;;9.34;90.14
36502;BME280;25393;46.108;3.390;2023-04-25T02:30:57;97651.41;;;9.49;90.03
36502;BME280;25393;46.108;3.390;2023-04-25T02:33:26;97647.38;;;9.61;89.03
36502;BME280;25393;46.108;3.390;2023-04-25T02:35:53;97644.59;;;9.54;89.10
36502;BME280;25393;46.108;3.390;2023-04-25T02:38:19;97658.31;;;9.58;89.26
36502;BME280;25393;46.108;3.390;2023-04-25T02:40:46;97648.41;;;9.60;88.58
36502;BME280;25393;46.108;3.390;2023-04-25T02:43:12;97653.47;;;9.70;87.54
36502;BME280;25393;46.108;3.390;2023-04-25T02:45:39;97640.59;;;9.67;88.38
36502;BME280;25393;46.108;3.390;2023-04-25T02:48:05;97640.28;;;9.62;88.81
36502;BME280;25393;46.108;3.390;2023-04-25T02:50:32;97640.59;;;9.67;88.47
36502;BME280;25393;46.108;3.390;2023-04-25T02:52:59;97646.66;;;9.75;88.42
36502;BME280;25393;46.108;3.390;2023-04-25T02:55:28;97642.25;;;9.98;85.99
36502;BME280;25393;46.108;3.390;2023-04-25T02:57:58;97645.38;;;10.02;85.86
36502;BME280;25393;46.108;3.390;2023-04-25T03:00:27;97630.44;;;10.09;85.98
36502;BME280;25393;46.108;3.390;2023-04-25T03:02:54;97644.50;;;10.10;85.38
36502;BME280;25393;46.108;3.390;2023-04-25T03:05:22;97640.44;;;9.99;86.58
36502;BME280;25393;46.108;3.390;2023-04-25T03:07:49;97634.13;;;10.00;86.82
36502;BME280;25393;46.108;3.390;2023-04-25T03:10:15;97624.19;;;10.02;87.47
36502;BME280;25393;46.108;3.390;2023-04-25T03:12:41;97637.69;;;10.15;86.80
36502;BME280;25393;46.108;3.390;2023-04-25T03:15:08;97636.34;;;10.19;86.16
36502;BME280;25393;46.108;3.390;2023-04-25T03:17:35;97633.47;;;10.29;85.17
36502;BME280;25393;46.108;3.390;2023-04-25T03:20:02;97627.41;;;10.20;84.35
36502;BME280;25393;46.108;3.390;2023-04-25T03:22:30;97639.94;;;10.26;84.34
36502;BME280;25393;46.108;3.390;2023-04-25T03:24:59;97626.66;;;10.34;83.32
36502;BME280;25393;46.108;3.390;2023-04-25T03:27:29;97624.00;;;10.34;82.14
36502;BME280;25393;46.108;3.390;2023-04-25T03:29:55;97640.69;;;10.35;83.33
36502;BME280;25393;46.108;3.390;2023-04-25T03:32:24;97643.06;;;10.30;83.98
36502;BME280;25393;46.108;3.390;2023-04-25T03:34:51;97638.13;;;10.27;85.30
36502;BME280;25393;46.108;3.390;2023-04-25T03:37:17;97622.81;;;10.14;85.27
36502;BME280;25393;46.108;3.390;2023-04-25T03:39:44;97636.22;;;10.13;84.19
36502;BME280;25393;46.108;3.390;2023-04-25T03:42:10;97637.56;;;10.09;84.73
36502;BME280;25393;46.108;3.390;2023-04-25T03:44:37;97637.81;;;10.14;85.00
36502;BME280;25393;46.108;3.390;2023-04-25T03:47:03;97627.00;;;10.00;85.87
36502;BME280;25393;46.108;3.390;2023-04-25T03:49:32;97623.31;;;9.79;86.22
36502;BME280;25393;46.108;3.390;2023-04-25T03:52:02;97641.44;;;9.67;88.84
36502;BME280;25393;46.108;3.390;2023-04-25T03:54:29;97626.91;;;9.55;88.50
36502;BME280;25393;46.108;3.390;2023-04-25T03:56:55;97646.38;;;9.70;88.13
36502;BME280;25393;46.108;3.390;2023-04-25T03:59:22;97635.44;;;9.73;88.66
36502;BME280;25393;46.108;3.390;2023-04-25T04:01:49;97628.22;;;9.59;90.08
36502;BME280;25393;46.108;3.390;2023-04-25T04:04:15;97639.91;;;9.73;88.33
36502;BME280;25393;46.108;3.390;2023-04-25T04:06:42;97640.28;;;9.62;89.17
36502;BME280;25393;46.108;3.390;2023-04-25T04:09:08;97645.44;;;9.55;89.75
36502;BME280;25393;46.108;3.390;2023-04-25T04:11:38;97640.13;;;9.55;89.31
36502;BME280;25393;46.108;3.390;2023-04-25T04:14:05;97637.72;;;9.37;89.92
36502;BME280;25393;46.108;3.390;2023-04-25T04:16:32;97641.06;;;9.23;90.55
36502;BME280;25393;46.108;3.390;2023-04-25T04:19:03;97628.53;;;9.25;90.21
36502;BME280;25393;46.108;3.390;2023-04-25T04:21:32;97636.81;;;9.14;91.06
36502;BME280;25393;46.108;3.390;2023-04-25T04:24:03;97625.91;;;9.09;90.85
36502;BME280;25393;46.108;3.390;2023-04-25T04:26:31;97628.91;;;9.06;92.29
36502;BME280;25393;46.108;3.390;2023-04-25T04:29:03;97628.91;;;8.98;93.46
36502;BME280;25393;46.108;3.390;2023-04-25T04:31:32;97629.09;;;8.96;93.66
36502;BME280;25393;46.108;3.390;2023-04-25T04:33:59;97640.66;;;8.95;94.37
36502;BME280;25393;46.108;3.390;2023-04-25T04:36:29;97642.66;;;8.93;94.56
36502;BME280;25393;46.108;3.390;2023-04-25T04:38:58;97650.72;;;9.00;93.06
36502;BME280;25393;46.108;3.390;2023-04-25T04:41:24;97651.06;;;8.97;93.97
36502;BME280;25393;46.108;3.390;2023-04-25T04:43:50;97648.59;;;8.95;94.02
36502;BME280;25393;46.108;3.390;2023-04-25T04:46:19;97653.88;;;8.95;93.70
36502;BME280;25393;46.108;3.390;2023-04-25T04:48:46;97651.38;;;9.02;93.57
36502;BME280;25393;46.108;3.390;2023-04-25T04:51:12;97654.84;;;9.11;93.12
36502;BME280;25393;46.108;3.390;2023-04-25T04:53:39;97657.63;;;9.09;92.79
36502;BME280;25393;46.108;3.390;2023-04-25T04:56:06;97651.72;;;9.07;92.58
36502;BME280;25393;46.108;3.390;2023-04-25T04:58:32;97657.50;;;9.02;93.68
36502;BME280;25393;46.108;3.390;2023-04-25T05:01:00;97662.28;;;9.07;92.66
36502;BME280;25393;46.108;3.390;2023-04-25T05:03:28;97654.50;;;9.14;92.35
36502;BME280;25393;46.108;3.390;2023-04-25T05:05:57;97648.06;;;9.08;91.34
36502;BME280;25393;46.108;3.390;2023-04-25T05:08:23;97667.53;;;9.15;90.81
36502;BME280;25393;46.108;3.390;2023-04-25T05:10:50;97659.16;;;9.03;91.32
36502;BME280;25393;46.108;3.390;2023-04-25T05:13:16;97677.81;;;9.18;91.69
36502;BME280;25393;46.108;3.390;2023-04-25T05:15:43;97654.16;;;9.09;91.39
36502;BME280;25393;46.108;3.390;2023-04-25T05:18:09;97672.31;;;9.20;91.31
36502;BME280;25393;46.108;3.390;2023-04-25T05:20:36;97650.69;;;9.16;90.90
36502;BME280;25393;46.108;3.390;2023-04-25T05:23:03;97660.28;;;9.17;91.20
36502;BME280;25393;46.108;3.390;2023-04-25T05:25:33;97664.72;;;9.17;91.61
36502;BME280;25393;46.108;3.390;2023-04-25T05:28:02;97672.81;;;9.15;91.16
36502;BME280;25393;46.108;3.390;2023-04-25T05:30:29;97668.06;;;9.11;90.97
36502;BME280;25393;46.108;3.390;2023-04-25T05:33:02;97676.50;;;9.06;91.37
36502;BME280;25393;46.108;3.390;2023-04-25T05:35:29;97667.88;;;9.12;91.04
36502;BME280;25393;46.108;3.390;2023-04-25T05:37:58;97682.59;;;9.07;90.73
36502;BME280;25393;46.108;3.390;2023-04-25T05:40:27;97682.44;;;9.00;90.68
36502;BME280;25393;46.108;3.390;2023-04-25T05:42:54;97679.16;;;8.90;91.75
36502;BME280;25393;46.108;3.390;2023-04-25T05:45:20;97674.69;;;9.07;90.67
36502;BME280;25393;46.108;3.390;2023-04-25T05:47:47;97674.00;;;9.04;90.16
36502;BME280;25393;46.108;3.390;2023-04-25T05:50:13;97694.94;;;9.22;89.28
36502;BME280;25393;46.108;3.390;2023-04-25T05:52:40;97696.81;;;9.22;89.70
36502;BME280;25393;46.108;3.390;2023-04-25T05:55:07;97692.00;;;9.25;90.00
36502;BME280;25393;46.108;3.390;2023-04-25T05:57:33;97707.81;;;9.33;88.93
36502;BME280;25393;46.108;3.390;2023-04-25T06:00:01;97683.56;;;9.22;89.01
36502;BME280;25393;46.108;3.390;2023-04-25T06:02:28;97692.50;;;9.29;88.08
36502;BME280;25393;46.108;3.390;2023-04-25T06:04:57;97708.31;;;9.45;87.18
36502;BME280;25393;46.108;3.390;2023-04-25T06:07:24;97702.69;;;9.40;87.04
36502;BME280;25393;46.108;3.390;2023-04-25T06:09:51;97699.56;;;9.36;87.36
36502;BME280;25393;46.108;3.390;2023-04-25T06:12:18;97698.28;;;9.16;87.99
36502;BME280;25393;46.108;3.390;2023-04-25T06:14:45;97685.25;;;9.07;87.77
36502;BME280;25393;46.108;3.390;2023-04-25T06:17:14;97695.31;;;9.11;88.20
36502;BME280;25393;46.108;3.390;2023-04-25T06:19:41;97718.25;;;9.27;86.97
36502;BME280;25393;46.108;3.390;2023-04-25T06:22:07;97719.38;;;9.40;85.74
36502;BME280;25393;46.108;3.390;2023-04-25T06:24:34;97736.72;;;9.51;85.81
36502;BME280;25393;46.108;3.390;2023-04-25T06:27:04;97721.69;;;9.51;86.49
36502;BME280;25393;46.108;3.390;2023-04-25T06:29:34;97731.91;;;9.63;86.44
36502;BME280;25393;46.108;3.390;2023-04-25T06:32:01;97707.59;;;9.67;84.87
36502;BME280;25393;46.108;3.390;2023-04-25T06:34:28;97720.94;;;9.74;85.25
36502;BME280;25393;46.108;3.390;2023-04-25T06:36:57;97721.88;;;9.89;83.15
36502;BME280;25393;46.108;3.390;2023-04-25T06:39:23;97721.34;;;9.93;84.15
36502;BME280;25393;46.108;3.390;2023-04-25T06:41:51;97710.63;;;9.87;83.62
36502;BME280;25393;46.108;3.390;2023-04-25T06:44:18;97730.22;;;9.78;84.75
36502;BME280;25393;46.108;3.390;2023-04-25T06:46:47;97689.94;;;9.43;84.24
36502;BME280;25393;46.108;3.390;2023-04-25T06:49:13;97726.09;;;9.67;85.13
36502;BME280;25393;46.108;3.390;2023-04-25T06:51:42;97727.31;;;9.95;85.72
36502;BME280;25393;46.108;3.390;2023-04-25T06:54:11;97716.31;;;9.68;84.50
36502;BME280;25393;46.108;3.390;2023-04-25T06:56:38;97715.19;;;9.62;85.83
36502;BME280;25393;46.108;3.390;2023-04-25T06:59:07;97739.97;;;9.77;85.60
36502;BME280;25393;46.108;3.390;2023-04-25T07:01:34;97746.53;;;9.89;84.94
36502;BME280;25393;46.108;3.390;2023-04-25T07:04:01;97733.81;;;9.85;85.31
36502;BME280;25393;46.108;3.390;2023-04-25T07:06:28;97749.84;;;9.91;84.01
36502;BME280;25393;46.108;3.390;2023-04-25T07:08:57;97750.25;;;10.03;83.97
36502;BME280;25393;46.108;3.390;2023-04-25T07:11:23;97735.03;;;10.13;84.95
36502;BME280;25393;46.108;3.390;2023-04-25T07:13:50;97749.91;;;10.45;83.70
36502;BME280;25393;46.108;3.390;2023-04-25T07:16:16;97724.38;;;10.52;83.18
36502;BME280;25393;46.108;3.390;2023-04-25T07:18:43;97742.09;;;10.74;80.73
36502;BME280;25393;46.108;3.390;2023-04-25T07:21:09;97718.31;;;10.89;81.57
36502;BME280;25393;46.108;3.390;2023-04-25T07:23:36;97721.63;;;11.06;81.90
36502;BME280;25393;46.108;3.390;2023-04-25T07:26:03;97731.03;;;10.93;79.43
36502;BME280;25393;46.108;3.390;2023-04-25T07:28:33;97729.84;;;10.73;78.76
36502;BME280;25393;46.108;3.390;2023-04-25T07:31:03;97713.56;;;10.62;80.27
36502;BME280;25393;46.108;3.390;2023-04-25T07:33:33;97726.91;;;10.91;79.17
36502;BME280;25393;46.108;3.390;2023-04-25T07:36:03;97748.59;;;11.32;76.13
36502;BME280;25393;46.108;3.390;2023-04-25T07:38:32;97735.75;;;11.73;77.94
36502;BME280;25393;46.108;3.390;2023-04-25T07:41:02;97757.31;;;12.28;75.14
36502;BME280;25393;46.108;3.390;2023-04-25T07:43:29;97743.25;;;12.70;73.94
36502;BME280;25393;46.108;3.390;2023-04-25T07:45:59;97742.75;;;13.02;70.84
36502;BME280;25393;46.108;3.390;2023-04-25T07:48:29;97750.13;;;12.79;70.22
36502;BME280;25393;46.108;3.390;2023-04-25T07:51:03;97763.00;;;12.25;72.79
36502;BME280;25393;46.108;3.390;2023-04-25T07:53:31;97739.75;;;11.69;72.29
36502;BME280;25393;46.108;3.390;2023-04-25T07:56:01;97777.34;;;11.58;74.64
36502;BME280;25393;46.108;3.390;2023-04-25T07:58:28;97760.28;;;11.23;74.86
36502;BME280;25393;46.108;3.390;2023-04-25T08:00:57;97757.66;;;11.00;77.33
36502;BME280;25393;46.108;3.390;2023-04-25T08:03:24;97783.13;;;11.46;77.47
36502;BME280;25393;46.108;3.390;2023-04-25T08:05:51;97788.03;;;11.72;76.81
36502;BME280;25393;46.108;3.390;2023-04-25T08:08:18;97760.78;;;11.78;75.85
36502;BME280;25393;46.108;3.390;2023-04-25T08:10:45;97781.44;;;12.27;72.11
36502;BME280;25393;46.108;3.390;2023-04-25T08:13:11;97740.41;;;12.50;72.85
36502;BME280;25393;46.108;3.390;2023-04-25T08:15:38;97778.97;;;12.61;70.86
36502;BME280;25393;46.108;3.390;2023-04-25T08:18:04;97785.91;;;12.26;69.75
36502;BME280;25393;46.108;3.390;2023-04-25T08:20:31;97794.63;;;12.20;71.36
36502;BME280;25393;46.108;3.390;2023-04-25T08:22:58;97778.88;;;12.69;73.66
36502;BME280;25393;46.108;3.390;2023-04-25T08:25:31;97770.78;;;13.20;67.20
36502;BME280;25393;46.108;3.390;2023-04-25T08:27:57;97774.66;;;13.17;66.83
36502;BME280;25393;46.108;3.390;2023-04-25T08:30:32;97783.34;;;13.26;68.62
36502;BME280;25393;46.108;3.390;2023-04-25T08:32:58;97787.03;;;13.52;66.60
36502;BME280;25393;46.108;3.390;2023-04-25T08:35:28;97779.88;;;13.53;62.46
36502;BME280;25393;46.108;3.390;2023-04-25T08:37:57;97780.44;;;13.48;64.76
36502;BME280;25393;46.108;3.390;2023-04-25T08:40:26;97783.44;;;13.67;63.77
36502;BME280;25393;46.108;3.390;2023-04-25T08:42:57;97797.03;;;14.06;63.86
36502;BME280;25393;46.108;3.390;2023-04-25T08:45:27;97801.03;;;13.61;63.47
36502;BME280;25393;46.108;3.390;2023-04-25T08:47:55;97797.81;;;13.44;61.65
36502;BME280;25393;46.108;3.390;2023-04-25T08:50:23;97785.84;;;13.34;60.71
36502;BME280;25393;46.108;3.390;2023-04-25T08:52:53;97820.09;;;13.37;60.52
36502;BME280;25393;46.108;3.390;2023-04-25T08:55:20;97807.25;;;13.19;62.35
36502;BME280;25393;46.108;3.390;2023-04-25T08:57:47;97800.28;;;12.82;63.05
36502;BME280;25393;46.108;3.390;2023-04-25T09:00:14;97824.59;;;12.79;64.33
36502;BME280;25393;46.108;3.390;2023-04-25T09:02:42;97819.25;;;12.43;63.59
36502;BME280;25393;46.108;3.390;2023-04-25T09:05:13;97825.41;;;12.29;62.50
36502;BME280;25393;46.108;3.390;2023-04-25T09:07:40;97833.38;;;12.44;61.87
36502;BME280;25393;46.108;3.390;2023-04-25T09:10:07;97834.41;;;12.79;64.02
36502;BME280;25393;46.108;3.390;2023-04-25T09:12:34;97835.72;;;13.46;63.44
36502;BME280;25393;46.108;3.390;2023-04-25T09:15:09;97829.00;;;14.40;60.97
36502;BME280;25393;46.108;3.390;2023-04-25T09:17:36;97834.22;;;15.29;59.40
36502;BME280;25393;46.108;3.390;2023-04-25T09:20:08;97829.97;;;15.93;54.95
36502;BME280;25393;46.108;3.390;2023-04-25T09:22:36;97827.84;;;16.28;55.07
36502;BME280;25393;46.108;3.390;2023-04-25T09:25:12;97819.31;;;17.02;53.98
36502;BME280;25393;46.108;3.390;2023-04-25T09:27:51;97829.41;;;17.38;47.26
36502;BME280;25393;46.108;3.390;2023-04-25T09:30:18;97805.84;;;17.46;44.73
36502;BME280;25393;46.108;3.390;2023-04-25T09:32:45;97820.94;;;18.15;47.42
36502;BME280;25393;46.108;3.390;2023-04-25T09:35:23;97827.88;;;18.41;46.26
36502;BME280;25393;46.108;3.390;2023-04-25T09:37:51;97833.75;;;17.64;43.75
36502;BME280;25393;46.108;3.390;2023-04-25T09:40:18;97828.47;;;16.24;46.16
36502;BME280;25393;46.108;3.390;2023-04-25T09:42:44;97840.00;;;15.98;49.70
36502;BME280;25393;46.108;3.390;2023-04-25T09:45:12;97825.16;;;16.15;49.93
36502;BME280;25393;46.108;3.390;2023-04-25T09:47:41;97813.41;;;17.56;51.27
36502;BME280;25393;46.108;3.390;2023-04-25T09:50:14;97825.88;;;19.21;44.09
36502;BME280;25393;46.108;3.390;2023-04-25T09:52:42;97816.44;;;20.06;42.14
36502;BME280;25393;46.108;3.390;2023-04-25T09:55:09;97838.34;;;19.15;40.98
36502;BME280;25393;46.108;3.390;2023-04-25T09:57:36;97830.50;;;17.86;42.94
36502;BME280;25393;46.108;3.390;2023-04-25T10:00:07;97828.59;;;16.99;44.71
36502;BME280;25393;46.108;3.390;2023-04-25T10:02:38;97829.56;;;16.74;46.86
36502;BME280;25393;46.108;3.390;2023-04-25T10:05:07;97824.75;;;17.58;44.71
36502;BME280;25393;46.108;3.390;2023-04-25T10:07:36;97837.25;;;18.86;43.74
36502;BME280;25393;46.108;3.390;2023-04-25T10:10:04;97834.09;;;19.08;41.72
36502;BME280;25393;46.108;3.390;2023-04-25T10:12:33;97819.44;;;18.37;41.30
36502;BME280;25393;46.108;3.390;2023-04-25T10:15:00;97823.72;;;16.90;44.31
36502;BME280;25393;46.108;3.390;2023-04-25T10:17:28;97822.84;;;16.45;45.14
36502;BME280;25393;46.108;3.390;2023-04-25T10:19:55;97836.38;;;17.95;46.78
36502;BME280;25393;46.108;3.390;2023-04-25T10:22:39;97820.13;;;18.15;43.14
36502;BME280;25393;46.108;3.390;2023-04-25T10:25:08;97822.16;;;17.38;44.31
36502;BME280;25393;46.108;3.390;2023-04-25T10:27:35;97812.41;;;16.88;46.20
36502;BME280;25393;46.108;3.390;2023-04-25T10:30:07;97818.31;;;16.96;45.04
36502;BME280;25393;46.108;3.390;2023-04-25T10:32:39;97821.91;;;17.78;43.35
36502;BME280;25393;46.108;3.390;2023-04-25T10:35:34;97819.06;;;19.18;41.82
36502;BME280;25393;46.108;3.390;2023-04-25T10:38:11;97803.59;;;20.31;41.12
36502;BME280;25393;46.108;3.390;2023-04-25T10:40:40;97800.03;;;21.22;40.94
36502;BME280;25393;46.108;3.390;2023-04-25T10:46:15;97784.78;;;22.50;33.99
36502;BME280;25393;46.108;3.390;2023-04-25T10:48:47;97797.31;;;22.99;34.82
36502;BME280;25393;46.108;3.390;2023-04-25T10:51:34;97789.81;;;22.41;35.75
36502;BME280;25393;46.108;3.390;2023-04-25T10:54:22;97788.25;;;19.85;38.61
36502;BME280;25393;46.108;3.390;2023-04-25T10:56:50;97806.84;;;18.92;42.00
36502;BME280;25393;46.108;3.390;2023-04-25T10:59:18;97796.50;;;17.56;43.66
36502;BME280;25393;46.108;3.390;2023-04-25T11:01:46;97815.97;;;16.69;45.96
36502;BME280;25393;46.108;3.390;2023-04-25T11:04:24;97809.00;;;17.06;47.45
36502;BME280;25393;46.108;3.390;2023-04-25T11:09:35;97807.09;;;18.55;43.47
36502;BME280;25393;46.108;3.390;2023-04-25T11:12:02;97793.06;;;19.30;37.93
36502;BME280;25393;46.108;3.390;2023-04-25T11:14:32;97799.31;;;20.59;38.63
36502;BME280;25393;46.108;3.390;2023-04-25T11:17:03;97777.75;;;20.99;36.78
36502;BME280;25393;46.108;3.390;2023-04-25T11:19:32;97804.66;;;21.38;36.71
36502;BME280;25393;46.108;3.390;2023-04-25T11:22:03;97807.94;;;21.12;35.97
36502;BME280;25393;46.108;3.390;2023-04-25T11:24:34;97818.97;;;19.55;39.51
36502;BME280;25393;46.108;3.390;2023-04-25T11:27:02;97820.69;;;18.60;43.27
36502;BME280;25393;46.108;3.390;2023-04-25T11:29:33;97822.94;;;18.38;43.39
36502;BME280;25393;46.108;3.390;2023-04-25T11:32:03;97815.53;;;17.97;43.79
36502;BME280;25393;46.108;3.390;2023-04-25T11:34:33;97811.63;;;18.18;42.32
36502;BME280;25393;46.108;3.390;2023-04-25T11:37:03;97802.16;;;19.29;39.68
36502;BME280;25393;46.108;3.390;2023-04-25T11:39:33;97796.91;;;20.22;39.23
36502;BME280;25393;46.108;3.390;2023-04-25T11:42:04;97792.25;;;21.09;36.40
36502;BME280;25393;46.108;3.390;2023-04-25T11:44:35;97783.09;;;21.72;34.48
36502;BME280;25393;46.108;3.390;2023-04-25T11:47:02;97784.38;;;20.79;35.64
36502;BME280;25393;46.108;3.390;2023-04-25T11:49:31;97779.44;;;21.45;33.78
36502;BME280;25393;46.108;3.390;2023-04-25T11:52:01;97781.31;;;21.61;31.81
36502;BME280;25393;46.108;3.390;2023-04-25T11:54:28;97777.06;;;21.98;32.99
36502;BME280;25393;46.108;3.390;2023-04-25T11:56:56;97760.25;;;22.51;32.73
36502;BME280;25393;46.108;3.390;2023-04-25T11:59:24;97776.00;;;22.37;34.41
36502;BME280;25393;46.108;3.390;2023-04-25T12:01:51;97785.47;;;21.85;36.04
36502;BME280;25393;46.108;3.390;2023-04-25T12:04:23;97789.03;;;22.24;35.14
36502;BME280;25393;46.108;3.390;2023-04-25T12:06:52;97781.06;;;22.72;34.86
36502;BME280;25393;46.108;3.390;2023-04-25T12:09:33;97778.19;;;23.59;33.82
36502;BME280;25393;46.108;3.390;2023-04-25T12:12:03;97760.28;;;24.27;32.05
36502;BME280;25393;46.108;3.390;2023-04-25T12:14:34;97777.34;;;23.54;32.46
36502;BME280;25393;46.108;3.390;2023-04-25T12:17:04;97762.56;;;23.39;31.27
36502;BME280;25393;46.108;3.390;2023-04-25T12:19:36;97764.72;;;23.64;33.94
36502;BME280;25393;46.108;3.390;2023-04-25T12:22:03;97773.34;;;23.98;32.22
36502;BME280;25393;46.108;3.390;2023-04-25T12:24:33;97741.03;;;24.28;30.84
36502;BME280;25393;46.108;3.390;2023-04-25T12:27:05;97753.72;;;24.18;28.80
36502;BME280;25393;46.108;3.390;2023-04-25T12:29:34;97761.06;;;23.85;31.25
36502;BME280;25393;46.108;3.390;2023-04-25T12:32:15;97746.56;;;24.49;28.90
36502;BME280;25393;46.108;3.390;2023-04-25T12:34:43;97755.97;;;24.31;30.94
36502;BME280;25393;46.108;3.390;2023-04-25T12:37:09;97771.00;;;24.59;31.64
36502;BME280;25393;46.108;3.390;2023-04-25T12:39:36;97751.09;;;25.05;28.83
36502;BME280;25393;46.108;3.390;2023-04-25T12:42:03;97750.63;;;24.04;28.29
36502;BME280;25393;46.108;3.390;2023-04-25T12:44:34;97750.06;;;24.44;29.59
36502;BME280;25393;46.108;3.390;2023-04-25T12:47:01;97739.19;;;24.39;28.12
36502;BME280;25393;46.108;3.390;2023-04-25T12:49:30;97733.41;;;24.15;28.42
36502;BME280;25393;46.108;3.390;2023-04-25T12:52:05;97728.72;;;23.05;29.65
36502;BME280;25393;46.108;3.390;2023-04-25T12:54:34;97769.16;;;23.22;31.80
36502;BME280;25393;46.108;3.390;2023-04-25T12:57:01;97761.56;;;22.70;30.09
36502;BME280;25393;46.108;3.390;2023-04-25T12:59:36;97759.03;;;22.64;32.13
36502;BME280;25393;46.108;3.390;2023-04-25T13:02:05;97750.38;;;23.37;33.91
36502;BME280;25393;46.108;3.390;2023-04-25T13:04:35;97740.38;;;23.37;32.25
36502;BME280;25393;46.108;3.390;2023-04-25T13:07:03;97747.78;;;23.47;32.21
36502;BME280;25393;46.108;3.390;2023-04-25T13:09:35;97753.22;;;24.26;31.69
36502;BME280;25393;46.108;3.390;2023-04-25T13:12:06;97755.56;;;24.12;29.92
36502;BME280;25393;46.108;3.390;2023-04-25T13:14:36;97746.06;;;24.62;29.73
36502;BME280;25393;46.108;3.390;2023-04-25T13:17:06;97750.56;;;25.03;30.17